sensor_id;sensor_type;location;lat;lon;timestamp;P1;durP1;ratioP1;P2;durP2;ratioP2
66400;SDS011;53211;45.040;38.788;2022-09-09T00:01:49;652.90;;;159.40;;
66400;SDS011;53211;45.040;38.788;2022-09-09T00:04:23;661.65;;;157.15;;
66400;SDS011;53211;45.040;38.788;2022-09-09T00:07:01;661.50;;;154.90;;
66400;SDS011;53211;45.040;38.788;2022-09-09T00:09:49;661.13;;;158.90;;
66400;SDS011;53211;45.040;38.788;2022-09-09T00:12:34;659.50;;;159.70;;
66400;SDS011;53211;45.040;38.788;2022-09-09T00:15:17;658.30;;;157.50;;
66400;SDS011;53211;45.040;38.788;2022-09-09T00:23:03;648.03;;;160.33;;
66400;SDS011;53211;45.040;38.788;2022-09-09T00:25:42;646.95;;;158.85;;
66400;SDS011;53211;45.040;38.788;2022-09-09T00:28:19;648.53;;;160.03;;
66400;SDS011;53211;45.040;38.788;2022-09-09T00:30:48;648.10;;;162.60;;
66400;SDS011;53211;45.040;38.788;2022-09-09T00:33:15;655.37;;;157.30;;
66400;SDS011;53211;45.040;38.788;2022-09-09T00:35:48;663.05;;;154.65;;
66400;SDS011;53211;45.040;38.788;2022-09-09T00:40:53;654.75;;;158.15;;
66400;SDS011;53211;45.040;38.788;2022-09-09T00:43:31;664.25;;;156.40;;
66400;SDS011;53211;45.040;38.788;2022-09-09T00:48:33;680.85;;;151.60;;
66400;SDS011;53211;45.040;38.788;2022-09-09T00:51:15;682.15;;;149.80;;
66400;SDS011;53211;45.040;38.788;2022-09-09T00:54:07;677.80;;;150.60;;
66400;SDS011;53211;45.040;38.788;2022-09-09T00:57:22;667.03;;;153.17;;
66400;SDS011;53211;45.040;38.788;2022-09-09T01:05:26;676.95;;;151.10;;
66400;SDS011;53211;45.040;38.788;2022-09-09T01:08:02;683.40;;;146.45;;
66400;SDS011;53211;45.040;38.788;2022-09-09T01:10:37;685.13;;;147.00;;
66400;SDS011;53211;45.040;38.788;2022-09-09T01:13:09;682.40;;;148.20;;
66400;SDS011;53211;45.040;38.788;2022-09-09T01:15:42;681.80;;;147.80;;
66400;SDS011;53211;45.040;38.788;2022-09-09T01:18:13;678.45;;;149.50;;
66400;SDS011;53211;45.040;38.788;2022-09-09T01:28:49;673.70;;;151.75;;
66400;SDS011;53211;45.040;38.788;2022-09-09T01:31:21;672.15;;;153.35;;
66400;SDS011;53211;45.040;38.788;2022-09-09T01:33:53;669.45;;;152.80;;
66400;SDS011;53211;45.040;38.788;2022-09-09T01:36:34;663.05;;;153.30;;
66400;SDS011;53211;45.040;38.788;2022-09-09T01:39:13;707.67;;;148.90;;
66400;SDS011;53211;45.040;38.788;2022-09-09T01:41:40;670.30;;;153.02;;
66400;SDS011;53211;45.040;38.788;2022-09-09T01:44:10;668.95;;;152.70;;
66400;SDS011;53211;45.040;38.788;2022-09-09T01:46:38;714.00;;;145.40;;
66400;SDS011;53211;45.040;38.788;2022-09-09T01:49:09;734.75;;;146.93;;
66400;SDS011;53211;45.040;38.788;2022-09-09T01:51:36;717.10;;;146.10;;
66400;SDS011;53211;45.040;38.788;2022-09-09T01:54:06;676.50;;;147.95;;
66400;SDS011;53211;45.040;38.788;2022-09-09T01:56:40;677.40;;;146.60;;
66400;SDS011;53211;45.040;38.788;2022-09-09T01:59:23;777.92;;;142.07;;
66400;SDS011;53211;45.040;38.788;2022-09-09T02:02:17;779.80;;;142.90;;
66400;SDS011;53211;45.040;38.788;2022-09-09T02:04:57;768.20;;;142.80;;
66400;SDS011;53211;45.040;38.788;2022-09-09T02:10:22;777.33;;;143.43;;
66400;SDS011;53211;45.040;38.788;2022-09-09T02:13:04;665.20;;;153.30;;
66400;SDS011;53211;45.040;38.788;2022-09-09T02:15:42;674.75;;;152.60;;
66400;SDS011;53211;45.040;38.788;2022-09-09T02:18:26;670.40;;;151.90;;
66400;SDS011;53211;45.040;38.788;2022-09-09T02:20:57;668.70;;;151.43;;
66400;SDS011;53211;45.040;38.788;2022-09-09T02:23:24;679.80;;;152.50;;
66400;SDS011;53211;45.040;38.788;2022-09-09T02:25:53;681.30;;;149.90;;
66400;SDS011;53211;45.040;38.788;2022-09-09T02:28:25;685.03;;;148.10;;
66400;SDS011;53211;45.040;38.788;2022-09-09T02:30:55;737.13;;;145.02;;
66400;SDS011;53211;45.040;38.788;2022-09-09T02:33:27;683.85;;;149.40;;
66400;SDS011;53211;45.040;38.788;2022-09-09T02:35:59;675.67;;;151.80;;
66400;SDS011;53211;45.040;38.788;2022-09-09T02:38:31;674.85;;;150.85;;
66400;SDS011;53211;45.040;38.788;2022-09-09T02:41:07;667.75;;;153.60;;
66400;SDS011;53211;45.040;38.788;2022-09-09T02:43:35;675.10;;;149.60;;
66400;SDS011;53211;45.040;38.788;2022-09-09T02:52:07;648.87;;;166.53;;
66400;SDS011;53211;45.040;38.788;2022-09-09T02:54:40;647.87;;;167.00;;
66400;SDS011;53211;45.040;38.788;2022-09-09T02:57:11;650.00;;;162.50;;
66400;SDS011;53211;45.040;38.788;2022-09-09T02:59:46;666.83;;;174.13;;
66400;SDS011;53211;45.040;38.788;2022-09-09T03:02:13;664.50;;;155.37;;
66400;SDS011;53211;45.040;38.788;2022-09-09T03:04:41;647.25;;;167.70;;
66400;SDS011;53211;45.040;38.788;2022-09-09T03:07:12;655.75;;;162.70;;
66400;SDS011;53211;45.040;38.788;2022-09-09T03:09:41;660.25;;;158.45;;
66400;SDS011;53211;45.040;38.788;2022-09-09T03:12:07;655.07;;;159.03;;
66400;SDS011;53211;45.040;38.788;2022-09-09T03:14:34;658.90;;;156.75;;
66400;SDS011;53211;45.040;38.788;2022-09-09T03:17:00;657.80;;;156.13;;
66400;SDS011;53211;45.040;38.788;2022-09-09T03:19:31;661.25;;;156.35;;
66400;SDS011;53211;45.040;38.788;2022-09-09T03:21:58;667.75;;;155.80;;
66400;SDS011;53211;45.040;38.788;2022-09-09T03:24:27;670.90;;;150.10;;
66400;SDS011;53211;45.040;38.788;2022-09-09T03:26:53;664.70;;;156.40;;
66400;SDS011;53211;45.040;38.788;2022-09-09T03:29:21;675.85;;;158.25;;
66400;SDS011;53211;45.040;38.788;2022-09-09T03:31:48;660.20;;;157.70;;
66400;SDS011;53211;45.040;38.788;2022-09-09T03:34:14;663.70;;;159.35;;
66400;SDS011;53211;45.040;38.788;2022-09-09T03:36:40;665.85;;;156.80;;
66400;SDS011;53211;45.040;38.788;2022-09-09T03:39:09;662.90;;;158.75;;
66400;SDS011;53211;45.040;38.788;2022-09-09T03:41:36;668.43;;;156.93;;
66400;SDS011;53211;45.040;38.788;2022-09-09T03:44:03;662.95;;;157.40;;
66400;SDS011;53211;45.040;38.788;2022-09-09T03:46:34;662.60;;;155.50;;
66400;SDS011;53211;45.040;38.788;2022-09-09T03:49:01;667.95;;;156.10;;
66400;SDS011;53211;45.040;38.788;2022-09-09T03:51:29;653.67;;;158.40;;
66400;SDS011;53211;45.040;38.788;2022-09-09T03:53:55;656.80;;;159.80;;
66400;SDS011;53211;45.040;38.788;2022-09-09T03:56:25;658.65;;;158.00;;
66400;SDS011;53211;45.040;38.788;2022-09-09T03:58:52;657.95;;;162.50;;
66400;SDS011;53211;45.040;38.788;2022-09-09T04:01:18;655.50;;;162.55;;
66400;SDS011;53211;45.040;38.788;2022-09-09T04:03:45;673.40;;;156.10;;
66400;SDS011;53211;45.040;38.788;2022-09-09T04:06:12;657.45;;;165.45;;
66400;SDS011;53211;45.040;38.788;2022-09-09T04:08:41;668.10;;;156.10;;
66400;SDS011;53211;45.040;38.788;2022-09-09T04:11:08;671.87;;;155.40;;
66400;SDS011;53211;45.040;38.788;2022-09-09T04:13:37;681.10;;;152.80;;
66400;SDS011;53211;45.040;38.788;2022-09-09T04:16:06;661.25;;;166.35;;
66400;SDS011;53211;45.040;38.788;2022-09-09T04:18:36;663.40;;;163.50;;
66400;SDS011;53211;45.040;38.788;2022-09-09T04:21:02;662.60;;;166.00;;
66400;SDS011;53211;45.040;38.788;2022-09-09T04:23:31;672.60;;;157.60;;
66400;SDS011;53211;45.040;38.788;2022-09-09T04:25:59;680.90;;;152.15;;
66400;SDS011;53211;45.040;38.788;2022-09-09T04:28:28;665.15;;;163.77;;
66400;SDS011;53211;45.040;38.788;2022-09-09T04:30:56;697.90;;;147.40;;
66400;SDS011;53211;45.040;38.788;2022-09-09T04:33:23;696.83;;;146.27;;
66400;SDS011;53211;45.040;38.788;2022-09-09T04:35:53;697.50;;;146.20;;
66400;SDS011;53211;45.040;38.788;2022-09-09T04:38:21;699.87;;;147.53;;
66400;SDS011;53211;45.040;38.788;2022-09-09T04:40:49;709.10;;;166.35;;
66400;SDS011;53211;45.040;38.788;2022-09-09T04:43:17;702.90;;;147.70;;
66400;SDS011;53211;45.040;38.788;2022-09-09T04:45:48;690.50;;;146.95;;
66400;SDS011;53211;45.040;38.788;2022-09-09T04:48:17;695.60;;;148.60;;
66400;SDS011;53211;45.040;38.788;2022-09-09T04:50:43;702.70;;;147.80;;
66400;SDS011;53211;45.040;38.788;2022-09-09T04:53:11;697.40;;;150.65;;
66400;SDS011;53211;45.040;38.788;2022-09-09T04:55:37;805.15;;;142.88;;
66400;SDS011;53211;45.040;38.788;2022-09-09T04:58:05;698.60;;;150.65;;
66400;SDS011;53211;45.040;38.788;2022-09-09T05:00:32;696.60;;;151.47;;
66400;SDS011;53211;45.040;38.788;2022-09-09T05:03:04;801.60;;;145.10;;
66400;SDS011;53211;45.040;38.788;2022-09-09T05:05:32;801.13;;;146.48;;
66400;SDS011;53211;45.040;38.788;2022-09-09T05:08:02;792.05;;;147.00;;
66400;SDS011;53211;45.040;38.788;2022-09-09T05:10:30;805.15;;;145.32;;
66400;SDS011;53211;45.040;38.788;2022-09-09T05:12:57;809.70;;;145.40;;
66400;SDS011;53211;45.040;38.788;2022-09-09T05:15:26;803.25;;;145.52;;
66400;SDS011;53211;45.040;38.788;2022-09-09T05:17:52;792.83;;;136.63;;
66400;SDS011;53211;45.040;38.788;2022-09-09T05:20:23;699.55;;;157.40;;
66400;SDS011;53211;45.040;38.788;2022-09-09T05:22:52;691.60;;;158.70;;
66400;SDS011;53211;45.040;38.788;2022-09-09T05:25:24;694.30;;;157.00;;
66400;SDS011;53211;45.040;38.788;2022-09-09T05:27:53;691.07;;;157.33;;
66400;SDS011;53211;45.040;38.788;2022-09-09T05:30:19;725.85;;;155.65;;
66400;SDS011;53211;45.040;38.788;2022-09-09T05:32:47;690.45;;;157.40;;
66400;SDS011;53211;45.040;38.788;2022-09-09T05:35:16;691.00;;;156.10;;
66400;SDS011;53211;45.040;38.788;2022-09-09T05:37:45;765.40;;;149.35;;
66400;SDS011;53211;45.040;38.788;2022-09-09T05:40:12;735.00;;;152.40;;
66400;SDS011;53211;45.040;38.788;2022-09-09T05:42:39;707.30;;;154.60;;
66400;SDS011;53211;45.040;38.788;2022-09-09T05:45:06;706.00;;;156.10;;
66400;SDS011;53211;45.040;38.788;2022-09-09T05:47:33;825.87;;;147.70;;
66400;SDS011;53211;45.040;38.788;2022-09-09T05:50:00;841.57;;;145.40;;
66400;SDS011;53211;45.040;38.788;2022-09-09T05:52:26;841.10;;;145.20;;
66400;SDS011;53211;45.040;38.788;2022-09-09T05:54:54;833.30;;;145.40;;
66400;SDS011;53211;45.040;38.788;2022-09-09T05:57:22;817.00;;;145.50;;
66400;SDS011;53211;45.040;38.788;2022-09-09T05:59:50;823.25;;;146.20;;
66400;SDS011;53211;45.040;38.788;2022-09-09T06:02:16;821.90;;;148.75;;
66400;SDS011;53211;45.040;38.788;2022-09-09T06:04:42;813.63;;;149.45;;
66400;SDS011;53211;45.040;38.788;2022-09-09T06:07:08;812.35;;;149.45;;
66400;SDS011;53211;45.040;38.788;2022-09-09T06:09:34;856.25;;;147.75;;
66400;SDS011;53211;45.040;38.788;2022-09-09T06:12:01;855.20;;;150.05;;
66400;SDS011;53211;45.040;38.788;2022-09-09T06:17:18;729.53;;;155.33;;
66400;SDS011;53211;45.040;38.788;2022-09-09T06:19:44;711.63;;;160.37;;
66400;SDS011;53211;45.040;38.788;2022-09-09T06:22:11;787.40;;;149.70;;
66400;SDS011;53211;45.040;38.788;2022-09-09T06:24:38;716.35;;;158.95;;
66400;SDS011;53211;45.040;38.788;2022-09-09T06:27:05;813.65;;;148.98;;
66400;SDS011;53211;45.040;38.788;2022-09-09T06:29:34;731.07;;;154.53;;
66400;SDS011;53211;45.040;38.788;2022-09-09T06:32:01;727.23;;;156.70;;
66400;SDS011;53211;45.040;38.788;2022-09-09T06:34:28;730.65;;;155.50;;
66400;SDS011;53211;45.040;38.788;2022-09-09T06:36:56;841.95;;;146.20;;
66400;SDS011;53211;45.040;38.788;2022-09-09T06:39:24;841.10;;;146.40;;
66400;SDS011;53211;45.040;38.788;2022-09-09T06:41:51;743.85;;;159.20;;
66400;SDS011;53211;45.040;38.788;2022-09-09T06:44:37;711.80;;;162.40;;
66400;SDS011;53211;45.040;38.788;2022-09-09T06:47:06;716.60;;;161.05;;
66400;SDS011;53211;45.040;38.788;2022-09-09T06:49:33;842.70;;;145.60;;
66400;SDS011;53211;45.040;38.788;2022-09-09T06:52:03;832.17;;;149.43;;
66400;SDS011;53211;45.040;38.788;2022-09-09T06:54:30;829.90;;;149.45;;
66400;SDS011;53211;45.040;38.788;2022-09-09T06:56:57;837.10;;;147.63;;
66400;SDS011;53211;45.040;38.788;2022-09-09T06:59:24;862.08;;;146.45;;
66400;SDS011;53211;45.040;38.788;2022-09-09T07:01:53;854.90;;;147.43;;
66400;SDS011;53211;45.040;38.788;2022-09-09T07:04:21;844.50;;;148.50;;
66400;SDS011;53211;45.040;38.788;2022-09-09T07:06:47;854.50;;;147.20;;
66400;SDS011;53211;45.040;38.788;2022-09-09T07:09:18;861.80;;;147.50;;
66400;SDS011;53211;45.040;38.788;2022-09-09T07:11:50;856.55;;;147.10;;
66400;SDS011;53211;45.040;38.788;2022-09-09T07:14:19;846.83;;;148.30;;
66400;SDS011;53211;45.040;38.788;2022-09-09T07:16:51;840.92;;;147.05;;
66400;SDS011;53211;45.040;38.788;2022-09-09T07:19:17;839.22;;;145.85;;
66400;SDS011;53211;45.040;38.788;2022-09-09T07:21:46;831.25;;;148.95;;
66400;SDS011;53211;45.040;38.788;2022-09-09T07:24:16;849.13;;;145.25;;
66400;SDS011;53211;45.040;38.788;2022-09-09T07:26:43;837.75;;;149.40;;
66400;SDS011;53211;45.040;38.788;2022-09-09T07:29:10;712.10;;;176.45;;
66400;SDS011;53211;45.040;38.788;2022-09-09T07:31:40;649.23;;;214.53;;
66400;SDS011;53211;45.040;38.788;2022-09-09T07:34:12;831.20;;;149.50;;
66400;SDS011;53211;45.040;38.788;2022-09-09T07:36:39;798.57;;;153.47;;
66400;SDS011;53211;45.040;38.788;2022-09-09T07:39:26;738.05;;;159.85;;
66400;SDS011;53211;45.040;38.788;2022-09-09T07:41:53;760.45;;;155.95;;
66400;SDS011;53211;45.040;38.788;2022-09-09T07:44:22;830.33;;;148.02;;
66400;SDS011;53211;45.040;38.788;2022-09-09T07:47:06;836.80;;;147.75;;
66400;SDS011;53211;45.040;38.788;2022-09-09T07:49:37;680.20;;;205.40;;
66400;SDS011;53211;45.040;38.788;2022-09-09T07:52:05;680.65;;;213.15;;
66400;SDS011;53211;45.040;38.788;2022-09-09T07:54:32;660.00;;;221.45;;
66400;SDS011;53211;45.040;38.788;2022-09-09T07:57:11;665.55;;;202.05;;
66400;SDS011;53211;45.040;38.788;2022-09-09T07:59:38;662.17;;;213.90;;
66400;SDS011;53211;45.040;38.788;2022-09-09T08:02:23;705.55;;;179.45;;
66400;SDS011;53211;45.040;38.788;2022-09-09T08:04:51;711.10;;;175.10;;
66400;SDS011;53211;45.040;38.788;2022-09-09T08:07:18;706.50;;;174.05;;
66400;SDS011;53211;45.040;38.788;2022-09-09T08:09:52;689.73;;;190.50;;
66400;SDS011;53211;45.040;38.788;2022-09-09T08:12:24;694.27;;;190.23;;
66400;SDS011;53211;45.040;38.788;2022-09-09T08:14:50;717.70;;;169.87;;
66400;SDS011;53211;45.040;38.788;2022-09-09T08:17:17;716.67;;;171.53;;
66400;SDS011;53211;45.040;38.788;2022-09-09T08:19:43;707.50;;;175.90;;
66400;SDS011;53211;45.040;38.788;2022-09-09T08:22:15;708.47;;;178.13;;
66400;SDS011;53211;45.040;38.788;2022-09-09T08:24:41;709.97;;;177.10;;
66400;SDS011;53211;45.040;38.788;2022-09-09T08:27:08;713.90;;;176.40;;
66400;SDS011;53211;45.040;38.788;2022-09-09T08:29:36;707.13;;;181.70;;
66400;SDS011;53211;45.040;38.788;2022-09-09T08:32:03;712.20;;;180.10;;
66400;SDS011;53211;45.040;38.788;2022-09-09T08:34:30;704.03;;;183.90;;
66400;SDS011;53211;45.040;38.788;2022-09-09T08:37:00;701.17;;;188.37;;
66400;SDS011;53211;45.040;38.788;2022-09-09T08:39:34;698.17;;;185.10;;
66400;SDS011;53211;45.040;38.788;2022-09-09T08:50:22;777.27;;;158.63;;
66400;SDS011;53211;45.040;38.788;2022-09-09T08:53:14;669.20;;;221.67;;
66400;SDS011;53211;45.040;38.788;2022-09-09T08:58:54;678.55;;;207.55;;
66400;SDS011;53211;45.040;38.788;2022-09-09T09:01:43;700.80;;;190.70;;
66400;SDS011;53211;45.040;38.788;2022-09-09T09:07:28;726.85;;;164.75;;
66400;SDS011;53211;45.040;38.788;2022-09-09T09:16:31;729.60;;;167.40;;
66400;SDS011;53211;45.040;38.788;2022-09-09T09:19:04;714.95;;;180.70;;
66400;SDS011;53211;45.040;38.788;2022-09-09T09:24:20;702.45;;;190.50;;
66400;SDS011;53211;45.040;38.788;2022-09-09T09:26:51;709.15;;;187.40;;
66400;SDS011;53211;45.040;38.788;2022-09-09T09:29:19;801.90;;;153.70;;
66400;SDS011;53211;45.040;38.788;2022-09-09T09:31:51;708.90;;;187.73;;
66400;SDS011;53211;45.040;38.788;2022-09-09T09:34:21;770.87;;;167.17;;
66400;SDS011;53211;45.040;38.788;2022-09-09T09:36:58;797.93;;;155.87;;
66400;SDS011;53211;45.040;38.788;2022-09-09T09:39:32;682.10;;;211.80;;
66400;SDS011;53211;45.040;38.788;2022-09-09T09:42:22;682.55;;;215.00;;
66400;SDS011;53211;45.040;38.788;2022-09-09T09:44:49;682.80;;;215.67;;
66400;SDS011;53211;45.040;38.788;2022-09-09T09:47:22;726.30;;;186.50;;
66400;SDS011;53211;45.040;38.788;2022-09-09T09:50:16;724.87;;;190.27;;
66400;SDS011;53211;45.040;38.788;2022-09-09T09:52:52;776.90;;;169.10;;
66400;SDS011;53211;45.040;38.788;2022-09-09T09:55:23;802.30;;;156.40;;
66400;SDS011;53211;45.040;38.788;2022-09-09T09:57:51;824.03;;;152.30;;
66400;SDS011;53211;45.040;38.788;2022-09-09T10:03:14;804.23;;;156.73;;
66400;SDS011;53211;45.040;38.788;2022-09-09T10:05:54;806.20;;;157.80;;
66400;SDS011;53211;45.040;38.788;2022-09-09T10:08:22;713.80;;;197.65;;
66400;SDS011;53211;45.040;38.788;2022-09-09T10:13:39;699.30;;;200.70;;
66400;SDS011;53211;45.040;38.788;2022-09-09T10:19:00;703.35;;;203.30;;
66400;SDS011;53211;45.040;38.788;2022-09-09T10:21:52;733.35;;;177.60;;
66400;SDS011;53211;45.040;38.788;2022-09-09T10:33:33;739.70;;;177.13;;
66400;SDS011;53211;45.040;38.788;2022-09-09T10:36:20;742.00;;;180.60;;
66400;SDS011;53211;45.040;38.788;2022-09-09T10:42:06;481.00;;;97.70;;
66400;SDS011;53211;45.040;38.788;2022-09-09T13:50:56;498.10;;;214.80;;
66400;SDS011;53211;45.040;38.788;2022-09-09T13:53:24;606.38;;;265.45;;
66400;SDS011;53211;45.040;38.788;2022-09-09T13:55:51;629.80;;;278.90;;
66400;SDS011;53211;45.040;38.788;2022-09-09T13:58:24;495.10;;;211.00;;
66400;SDS011;53211;45.040;38.788;2022-09-09T14:00:54;611.10;;;275.25;;
66400;SDS011;53211;45.040;38.788;2022-09-09T14:03:20;603.35;;;248.38;;
66400;SDS011;53211;45.040;38.788;2022-09-09T14:05:47;610.97;;;265.65;;
66400;SDS011;53211;45.040;38.788;2022-09-09T14:08:15;614.40;;;272.43;;
66400;SDS011;53211;45.040;38.788;2022-09-09T14:10:47;599.30;;;237.90;;
66400;SDS011;53211;45.040;38.788;2022-09-09T14:13:13;635.00;;;295.70;;
66400;SDS011;53211;45.040;38.788;2022-09-09T14:15:41;635.15;;;291.80;;
66400;SDS011;53211;45.040;38.788;2022-09-09T14:18:09;641.60;;;291.95;;
66400;SDS011;53211;45.040;38.788;2022-09-09T14:20:39;639.83;;;289.08;;
66400;SDS011;53211;45.040;38.788;2022-09-09T14:23:05;675.05;;;251.55;;
66400;SDS011;53211;45.040;38.788;2022-09-09T14:25:31;614.00;;;272.73;;
66400;SDS011;53211;45.040;38.788;2022-09-09T14:27:58;605.50;;;257.70;;
66400;SDS011;53211;45.040;38.788;2022-09-09T14:30:24;632.23;;;288.83;;
66400;SDS011;53211;45.040;38.788;2022-09-09T14:32:50;624.50;;;278.77;;
66400;SDS011;53211;45.040;38.788;2022-09-09T14:35:16;624.27;;;280.20;;
66400;SDS011;53211;45.040;38.788;2022-09-09T14:37:43;620.30;;;280.50;;
66400;SDS011;53211;45.040;38.788;2022-09-09T14:40:10;605.70;;;259.30;;
66400;SDS011;53211;45.040;38.788;2022-09-09T14:42:36;642.60;;;271.85;;
66400;SDS011;53211;45.040;38.788;2022-09-09T14:45:02;649.60;;;274.30;;
66400;SDS011;53211;45.040;38.788;2022-09-09T14:47:29;672.80;;;242.80;;
66400;SDS011;53211;45.040;38.788;2022-09-09T14:49:55;675.30;;;244.75;;
66400;SDS011;53211;45.040;38.788;2022-09-09T14:52:21;758.50;;;165.10;;
66400;SDS011;53211;45.040;38.788;2022-09-09T14:54:47;752.40;;;166.70;;
66400;SDS011;53211;45.040;38.788;2022-09-09T14:57:13;707.50;;;206.45;;
66400;SDS011;53211;45.040;38.788;2022-09-09T14:59:39;676.37;;;238.27;;
66400;SDS011;53211;45.040;38.788;2022-09-09T15:02:08;687.30;;;218.60;;
66400;SDS011;53211;45.040;38.788;2022-09-09T15:04:35;678.75;;;232.55;;
66400;SDS011;53211;45.040;38.788;2022-09-09T15:07:00;710.65;;;200.55;;
66400;SDS011;53211;45.040;38.788;2022-09-09T15:09:26;725.80;;;199.45;;
66400;SDS011;53211;45.040;38.788;2022-09-09T15:11:52;680.22;;;227.82;;
66400;SDS011;53211;45.040;38.788;2022-09-09T15:14:18;731.25;;;178.65;;
66400;SDS011;53211;45.040;38.788;2022-09-09T15:16:44;715.30;;;193.65;;
66400;SDS011;53211;45.040;38.788;2022-09-09T15:19:10;693.85;;;208.30;;
66400;SDS011;53211;45.040;38.788;2022-09-09T15:21:36;657.27;;;239.27;;
66400;SDS011;53211;45.040;38.788;2022-09-09T15:24:04;654.15;;;251.05;;
66400;SDS011;53211;45.040;38.788;2022-09-09T15:26:32;670.90;;;230.80;;
66400;SDS011;53211;45.040;38.788;2022-09-09T15:28:58;672.70;;;222.43;;
66400;SDS011;53211;45.040;38.788;2022-09-09T15:31:25;663.67;;;235.00;;
66400;SDS011;53211;45.040;38.788;2022-09-09T15:33:57;675.70;;;219.17;;
66400;SDS011;53211;45.040;38.788;2022-09-09T15:36:28;659.87;;;236.43;;
66400;SDS011;53211;45.040;38.788;2022-09-09T15:38:57;661.30;;;236.80;;
66400;SDS011;53211;45.040;38.788;2022-09-09T15:41:28;665.20;;;228.90;;
66400;SDS011;53211;45.040;38.788;2022-09-09T15:43:57;662.57;;;227.73;;
66400;SDS011;53211;45.040;38.788;2022-09-09T15:46:31;662.35;;;230.10;;
66400;SDS011;53211;45.040;38.788;2022-09-09T15:49:08;660.60;;;228.25;;
66400;SDS011;53211;45.040;38.788;2022-09-09T15:51:42;667.33;;;221.03;;
66400;SDS011;53211;45.040;38.788;2022-09-09T15:54:34;668.55;;;219.20;;
66400;SDS011;53211;45.040;38.788;2022-09-09T15:57:02;668.05;;;217.25;;
66400;SDS011;53211;45.040;38.788;2022-09-09T15:59:30;665.77;;;220.53;;
66400;SDS011;53211;45.040;38.788;2022-09-09T16:01:57;661.45;;;224.55;;
66400;SDS011;53211;45.040;38.788;2022-09-09T16:04:25;660.50;;;219.65;;
66400;SDS011;53211;45.040;38.788;2022-09-09T16:06:59;665.90;;;216.85;;
66400;SDS011;53211;45.040;38.788;2022-09-09T16:09:27;663.40;;;217.17;;
66400;SDS011;53211;45.040;38.788;2022-09-09T16:11:57;670.60;;;197.60;;
66400;SDS011;53211;45.040;38.788;2022-09-09T16:14:35;667.73;;;210.00;;
66400;SDS011;53211;45.040;38.788;2022-09-09T16:17:04;665.35;;;211.20;;
66400;SDS011;53211;45.040;38.788;2022-09-09T16:19:33;659.30;;;218.35;;
66400;SDS011;53211;45.040;38.788;2022-09-09T16:22:02;663.00;;;211.80;;
66400;SDS011;53211;45.040;38.788;2022-09-09T16:24:29;656.90;;;217.20;;
66400;SDS011;53211;45.040;38.788;2022-09-09T16:26:55;657.25;;;214.55;;
66400;SDS011;53211;45.040;38.788;2022-09-09T16:29:22;665.40;;;208.40;;
66400;SDS011;53211;45.040;38.788;2022-09-09T16:31:49;661.30;;;210.60;;
66400;SDS011;53211;45.040;38.788;2022-09-09T16:34:16;659.80;;;202.23;;
66400;SDS011;53211;45.040;38.788;2022-09-09T16:36:43;665.80;;;195.57;;
66400;SDS011;53211;45.040;38.788;2022-09-09T16:39:11;665.80;;;199.90;;
66400;SDS011;53211;45.040;38.788;2022-09-09T16:41:39;661.50;;;207.17;;
66400;SDS011;53211;45.040;38.788;2022-09-09T16:44:10;655.55;;;205.15;;
66400;SDS011;53211;45.040;38.788;2022-09-09T16:46:41;663.60;;;199.10;;
66400;SDS011;53211;45.040;38.788;2022-09-09T16:49:10;664.85;;;200.55;;
66400;SDS011;53211;45.040;38.788;2022-09-09T16:51:41;656.13;;;204.47;;
66400;SDS011;53211;45.040;38.788;2022-09-09T16:54:12;659.85;;;206.80;;
66400;SDS011;53211;45.040;38.788;2022-09-09T16:56:41;663.47;;;200.27;;
66400;SDS011;53211;45.040;38.788;2022-09-09T16:59:09;664.63;;;211.30;;
66400;SDS011;53211;45.040;38.788;2022-09-09T17:01:40;657.60;;;201.70;;
66400;SDS011;53211;45.040;38.788;2022-09-09T17:04:10;622.10;;;236.20;;
66400;SDS011;53211;45.040;38.788;2022-09-09T17:06:39;653.80;;;204.10;;
66400;SDS011;53211;45.040;38.788;2022-09-09T17:09:10;648.35;;;210.60;;
66400;SDS011;53211;45.040;38.788;2022-09-09T17:11:37;669.33;;;188.33;;
66400;SDS011;53211;45.040;38.788;2022-09-09T17:14:05;665.57;;;189.10;;
66400;SDS011;53211;45.040;38.788;2022-09-09T17:16:32;664.90;;;190.97;;
66400;SDS011;53211;45.040;38.788;2022-09-09T17:19:03;657.70;;;198.35;;
66400;SDS011;53211;45.040;38.788;2022-09-09T17:21:29;657.80;;;200.73;;
66400;SDS011;53211;45.040;38.788;2022-09-09T17:23:57;630.50;;;222.35;;
66400;SDS011;53211;45.040;38.788;2022-09-09T17:26:27;616.33;;;232.83;;
66400;SDS011;53211;45.040;38.788;2022-09-09T17:28:56;644.45;;;218.25;;
66400;SDS011;53211;45.040;38.788;2022-09-09T17:31:23;637.00;;;217.10;;
66400;SDS011;53211;45.040;38.788;2022-09-09T17:33:51;651.50;;;195.50;;
66400;SDS011;53211;45.040;38.788;2022-09-09T17:36:23;653.93;;;197.67;;
66400;SDS011;53211;45.040;38.788;2022-09-09T17:38:53;644.65;;;206.85;;
66400;SDS011;53211;45.040;38.788;2022-09-09T17:41:20;649.80;;;205.80;;
66400;SDS011;53211;45.040;38.788;2022-09-09T17:43:50;651.70;;;203.97;;
66400;SDS011;53211;45.040;38.788;2022-09-09T17:46:21;646.65;;;206.90;;
66400;SDS011;53211;45.040;38.788;2022-09-09T17:48:56;649.10;;;204.15;;
66400;SDS011;53211;45.040;38.788;2022-09-09T17:51:25;652.35;;;202.15;;
66400;SDS011;53211;45.040;38.788;2022-09-09T17:53:55;653.87;;;199.90;;
66400;SDS011;53211;45.040;38.788;2022-09-09T17:56:24;652.00;;;205.00;;
66400;SDS011;53211;45.040;38.788;2022-09-09T17:58:53;654.27;;;204.57;;
66400;SDS011;53211;45.040;38.788;2022-09-09T18:01:20;644.60;;;211.27;;
66400;SDS011;53211;45.040;38.788;2022-09-09T18:03:49;644.77;;;213.27;;
66400;SDS011;53211;45.040;38.788;2022-09-09T18:06:16;645.60;;;203.75;;
66400;SDS011;53211;45.040;38.788;2022-09-09T18:08:51;651.95;;;209.25;;
66400;SDS011;53211;45.040;38.788;2022-09-09T18:11:21;646.93;;;210.73;;
66400;SDS011;53211;45.040;38.788;2022-09-09T18:13:54;644.00;;;213.10;;
66400;SDS011;53211;45.040;38.788;2022-09-09T18:16:22;640.43;;;208.13;;
66400;SDS011;53211;45.040;38.788;2022-09-09T18:18:51;645.17;;;215.93;;
66400;SDS011;53211;45.040;38.788;2022-09-09T18:21:20;648.33;;;211.70;;
66400;SDS011;53211;45.040;38.788;2022-09-09T18:23:47;655.20;;;198.70;;
66400;SDS011;53211;45.040;38.788;2022-09-09T18:26:21;650.10;;;212.60;;
66400;SDS011;53211;45.040;38.788;2022-09-09T18:28:53;648.30;;;217.60;;